KANW/ANW METAR and TAF weather

Enter ICAO airport designator
Station Type Date Time Source
KANW METAR 2018/12/12 17:35 UTC NOAA

KANW 121735Z AUTO 23006KT 10SM CLR 00/M05 A2962 RMK AO2 T00001050


Station Type Date Time Source
KANW Decoded METAR 2018/12/12 17:35 UTC NOAA

Ainsworth Municipal, NE, United States (KANW) 42-35N 100-00W
Dec 12, 2018 - 12:35 PM EST / 2018.12.12 1735 UTC
Wind: from the SW (230 degrees) at 7 MPH (6 KT):0
Visibility: 10 mile(s):0
Sky conditions: clear
Temperature: 32.0 F (0.0 C)
Windchill: 24 F (-4 C):1
Dew Point: 23.0 F (-5.0 C)
Relative Humidity: 69%
Pressure (altimeter): 29.62 in. Hg (1003 hPa)
ob: KANW 121735Z AUTO 23006KT 10SM CLR 00/M05 A2962 RMK AO2 T00001050
cycle: 17

Station Type Date Time Source
KANW TAF UTC NOAA

Error!


Example: see airport list